logo
Search for airport 
image banner adimage banner adimage banner ad
image banner ad

LODA - Leoben Lkh

Located in District Leoben, Austria

ICAO - , IATA -

Data provided by Airmate  

General information

Coordinates: N47°22'50" E15°5'5"
Elevation is 1910 feet MSL.
 
View others Airports in Styria

Operational data

Special qualification required
Current time UTC:
Current local time:
Weather at : LOXZ - Zeltweg ( 32 km )
METAR: LOXZ 250550Z 09004KT 070V130 9999 FEW045 SCT150 BKN220 17/13 Q1018 NOSIG
TAF: TAF LOXZ 250515Z 2506/2515 VRB03KT 9999 SCT060 SCT230 TEMPO 2513/2515 12008KT FEW050TCU BKN060
View NOTAMs / SUP AIP / TFR affecting this airport [VIEW]
Communications frequencies: [VIEW]

Runways:

Airport contact information

Address: District Leoben Austria

Satellite view of LODA